Time;durP1;ratioP1;P1;durP2;ratioP2;P2;SDS_P1;SDS_P2;PMS_P1;PMS_P2;Temp;Humidity;BMP_temperature;BMP_pressure;BME280_temperature;BME280_humidity;BME280_pressure;Samples;Min_cycle;Max_cycle;Signal;HPM_P1;HPM_P2
2022/05/14 00:07:00;;;;;;;9.60;7.00;;;;;;;10.36;63.94;98804.33;432441;1273;99283;-48
2022/05/14 00:17:07;;;;;;;8.70;6.20;;;;;;;10.19;64.10;98803.59;432460;1271;112385;-45
2022/05/14 00:27:15;;;;;;;11.10;6.70;;;;;;;10.05;64.31;98812.08;432271;1271;108828;-44
2022/05/14 00:37:22;;;;;;;11.90;7.80;;;;;;;9.98;64.57;98814.09;432397;1271;98126;-43
2022/05/14 00:47:35;;;;;;;14.10;8.30;;;;;;;10.02;64.80;98817.49;432331;1271;108880;-44
2022/05/14 00:57:44;;;;;;;13.80;8.70;;;;;;;9.98;64.89;98826.20;432329;1271;99761;-43
2022/05/14 01:07:55;;;;;;;13.50;6.40;;;;;;;9.97;64.68;98829.98;432363;1271;112682;-45
2022/05/14 01:18:02;;;;;;;12.40;5.80;;;;;;;10.08;64.54;98823.63;432198;1271;109582;-43
2022/05/14 01:28:09;;;;;;;5.90;5.10;;;;;;;10.20;64.76;98829.53;432275;1271;99257;-44
2022/05/14 01:38:18;;;;;;;15.40;6.90;;;;;;;10.20;64.55;98824.24;432386;1271;108810;-43
2022/05/14 01:48:25;;;;;;;16.20;6.50;;;;;;;10.09;64.53;98830.16;433160;1261;99276;-45
2022/05/14 01:58:38;;;;;;;8.60;5.70;;;;;;;9.97;64.63;98828.77;432361;1272;112417;-46
2022/05/14 02:08:46;;;;;;;9.90;5.60;;;;;;;9.89;64.55;98818.68;432280;1273;108807;-42
2022/05/14 02:18:53;;;;;;;7.20;4.00;;;;;;;9.80;64.62;98813.48;432401;1273;99255;-43
2022/05/14 02:29:00;;;;;;;10.90;5.30;;;;;;;9.77;64.57;98812.64;432317;1273;109688;-46
2022/05/14 02:39:08;;;;;;;13.80;6.40;;;;;;;9.76;64.77;98804.09;432368;1273;99288;-43
2022/05/14 02:49:15;;;;;;;15.70;5.80;;;;;;;9.70;64.86;98802.00;432329;1273;112371;-45
2022/05/14 02:59:22;;;;;;;16.70;5.30;;;;;;;9.56;64.72;98814.45;432323;1273;108801;-43
2022/05/14 03:09:30;;;;;;;13.80;5.50;;;;;;;9.51;64.69;98815.32;432389;1273;99623;-45
2022/05/14 03:19:37;;;;;;;10.20;4.60;;;;;;;9.57;64.76;98810.46;432349;1274;108880;-44
2022/05/14 03:29:45;;;;;;;8.60;5.60;;;;;;;9.72;64.65;98819.27;432343;1273;99270;-45
2022/05/14 03:39:52;;;;;;;10.70;5.70;;;;;;;10.08;64.85;98829.87;432319;1272;112810;-43
2022/05/14 03:49:59;;;;;;;9.90;5.70;;;;;;;10.78;64.56;98831.88;432284;1274;108884;-43
2022/05/14 04:00:11;;;;;;;8.90;4.80;;;;;;;12.76;63.49;98830.60;432294;1273;98057;-44
2022/05/14 04:10:19;;;;;;;9.60;5.00;;;;;;;14.81;61.93;98834.11;432453;1274;108799;-42
2022/05/14 04:20:26;;;;;;;7.10;4.40;;;;;;;16.49;59.98;98829.55;432347;1272;98009;-44
2022/05/14 04:30:33;;;;;;;5.50;3.60;;;;;;;17.70;58.46;98831.55;432383;1274;112485;-45
2022/05/14 04:40:40;;;;;;;10.20;3.60;;;;;;;18.65;56.88;98827.23;432379;1273;108823;-43
2022/05/14 04:50:47;;;;;;;10.90;3.00;;;;;;;19.29;55.66;98834.45;432610;1274;97995;-45
2022/05/14 05:00:54;;;;;;;4.90;2.90;;;;;;;19.79;54.56;98834.98;432361;1273;108787;-41
2022/05/14 05:11:02;;;;;;;7.50;3.60;;;;;;;20.53;53.61;98833.89;432322;1272;99290;-44
2022/05/14 05:21:10;;;;;;;4.80;2.80;;;;;;;20.77;52.66;98830.07;432444;1274;112424;-46
2022/05/14 05:41:24;;;;;;;9.30;2.50;;;;;;;20.68;50.68;98833.05;432425;1273;98037;-42
2022/05/14 05:51:31;;;;;;;6.40;2.90;;;;;;;20.74;49.98;98827.37;432615;1273;107709;-46
2022/05/14 06:01:38;;;;;;;6.30;2.50;;;;;;;21.19;49.27;98833.30;432520;1273;98075;-44
2022/05/14 06:11:46;;;;;;;7.20;2.70;;;;;;;20.87;48.33;98838.68;432631;1273;112625;-44
2022/05/14 06:21:54;;;;;;;7.00;2.50;;;;;;;20.81;47.74;98835.83;432059;1273;720473;-42
2022/05/14 06:32:02;;;;;;;7.00;2.50;;;;;;;20.92;47.10;98840.88;432600;1273;98090;-44
2022/05/14 06:42:08;;;;;;;3.50;2.20;;;;;;;21.36;46.29;98838.70;432499;1273;108379;-42
2022/05/14 06:52:19;;;;;;;10.20;2.40;;;;;;;21.45;45.24;98837.61;432560;1273;99269;-45
2022/05/14 07:02:29;;;;;;;10.70;2.40;;;;;;;21.54;45.04;98836.73;432363;1273;112467;-42
2022/05/14 07:12:36;;;;;;;5.20;2.90;;;;;;;21.82;44.33;98840.52;432550;1273;109352;-46
2022/05/14 07:22:46;;;;;;;3.40;2.60;;;;;;;21.88;44.17;98838.92;432538;1273;98026;-47
2022/05/14 07:32:53;;;;;;;7.30;2.10;;;;;;;22.00;43.66;98834.94;432623;1271;108890;-41
2022/05/14 07:42:58;;;;;;;4.00;2.50;;;;;;;22.31;42.72;98824.75;432689;1272;99269;-42
2022/05/14 07:53:06;;;;;;;7.70;2.40;;;;;;;22.40;42.13;98816.63;432516;1273;112411;-43
2022/05/14 08:03:13;;;;;;;7.20;1.80;;;;;;;22.04;41.28;98810.26;432503;1272;108802;-46
2022/05/14 08:13:23;;;;;;;4.60;1.90;;;;;;;21.58;41.27;98799.98;432556;1272;98134;-41
2022/05/14 08:33:55;;;;;;;9.50;2.90;;;;;;;20.58;41.49;98803.90;432539;1273;98063;-42
2022/05/14 08:44:08;;;;;;;7.50;3.50;;;;;;;21.10;41.66;98803.11;432368;1273;112711;-45
2022/05/14 08:54:15;;;;;;;8.20;3.20;;;;;;;21.02;40.95;98810.40;432594;1272;110276;-45
2022/05/14 09:04:23;;;;;;;7.40;3.30;;;;;;;21.25;40.91;98799.02;432584;1271;97999;-42
2022/05/14 09:14:33;;;;;;;4.70;3.30;;;;;;;20.04;41.10;98812.90;432567;1273;108489;-48
2022/05/14 09:24:39;;;;;;;7.10;2.90;;;;;;;19.34;42.68;98810.23;432549;1273;99250;-43
2022/05/14 09:34:46;;;;;;;7.00;3.20;;;;;;;18.91;43.64;98809.52;432532;1273;112591;-46
2022/05/14 09:55:46;;;;;;;6.90;2.40;;;;;;;20.30;40.87;98791.69;432460;1273;99275;-47
2022/05/14 10:47:30;;;;;;;7.20;2.70;;;;;;;20.42;39.86;98771.24;419620;1309;649557;-48
2022/05/14 10:57:40;;;;;;;6.70;2.70;;;;;;;20.58;40.09;98764.42;430896;1280;94503;-47
2022/05/14 11:07:48;;;;;;;6.00;2.10;;;;;;;20.93;39.35;98761.02;430921;1279;107315;-43
2022/05/14 11:18:02;;;;;;;5.90;2.60;;;;;;;20.83;39.24;98758.08;430804;1280;109290;-49
2022/05/14 11:28:10;;;;;;;6.60;2.70;;;;;;;21.11;38.64;98756.74;430740;1280;107852;-44
2022/05/14 11:38:38;;;;;;;6.90;2.80;;;;;;;21.02;38.11;98760.45;430974;1279;95590;-46
2022/05/14 11:58:57;;;;;;;14.90;4.20;;;;;;;21.72;37.75;98733.47;430641;1280;108386;-45
2022/05/14 12:19:09;;;;;;;9.00;4.70;;;;;;;22.34;37.00;98723.93;430623;1279;108777;-42
2022/05/14 12:39:31;;;;;;;6.30;4.60;;;;;;;22.62;35.85;98711.30;430739;1278;95728;-47
2022/05/14 12:49:38;;;;;;;9.40;6.10;;;;;;;21.77;35.48;98719.04;430640;1280;109792;-44
2022/05/14 12:59:44;;;;;;;9.60;6.30;;;;;;;21.13;36.40;98721.01;430691;1279;108873;-42
2022/05/14 13:09:54;;;;;;;7.90;5.10;;;;;;;21.27;37.37;98718.03;430654;1280;108769;-44
2022/05/14 13:20:01;;;;;;;14.00;5.70;;;;;;;21.15;37.83;98717.21;431894;1274;96589;-45
2022/05/14 13:30:14;;;;;;;8.90;5.60;;;;;;;21.05;38.11;98715.55;431802;1273;109745;-47
2022/05/14 13:40:22;;;;;;;14.00;5.60;;;;;;;20.78;38.62;98709.36;431877;1274;108820;-42
2022/05/14 13:50:34;;;;;;;17.40;5.50;;;;;;;20.19;39.20;98700.13;431708;1274;108821;-41
2022/05/14 14:10:58;;;;;;;10.00;4.50;;;;;;;20.04;39.69;98710.60;431782;1272;109773;-43
2022/05/14 14:21:09;;;;;;;5.60;4.00;;;;;;;20.35;39.52;98708.14;431658;1274;108885;-42
2022/05/14 14:31:17;;;;;;;9.40;4.30;;;;;;;20.36;38.85;98707.80;431502;1274;109049;-47
2022/05/14 14:41:25;;;;;;;5.40;4.00;;;;;;;20.27;39.24;98709.24;431468;1274;95642;-46
2022/05/14 14:51:33;;;;;;;11.20;3.80;;;;;;;20.42;38.95;98714.60;431560;1274;96128;-42
2022/05/14 15:01:46;;;;;;;9.40;3.80;;;;;;;20.23;38.52;98714.57;431437;1274;109657;-41
2022/05/14 15:11:54;;;;;;;8.80;3.30;;;;;;;20.07;38.40;98716.25;431536;1274;108818;-43
2022/05/14 15:22:01;;;;;;;9.70;3.80;;;;;;;19.78;38.79;98722.73;431854;1273;108785;-43
2022/05/14 15:32:16;;;;;;;8.60;3.40;;;;;;;19.79;39.02;98720.79;431177;1277;96363;-47
2022/05/14 15:42:26;;;;;;;7.40;2.90;;;;;;;19.81;39.17;98715.66;431437;1274;109677;-47
2022/05/14 15:52:38;;;;;;;9.40;3.60;;;;;;;19.78;39.17;98715.91;431681;1273;108943;-43
2022/05/14 16:02:46;;;;;;;5.90;2.90;;;;;;;19.68;39.04;98710.73;432619;1273;108737;-42
2022/05/14 16:23:18;;;;;;;9.50;3.20;;;;;;;19.52;38.71;98699.59;432495;1271;109750;-43
2022/05/14 16:33:26;;;;;;;12.00;3.20;;;;;;;19.37;38.39;98702.05;432635;1270;107741;-47
2022/05/14 16:43:33;;;;;;;8.00;2.80;;;;;;;19.09;38.44;98709.68;432609;1269;108865;-46
2022/05/14 16:53:40;;;;;;;19.00;7.90;;;;;;;18.77;38.74;98717.04;432619;1271;95738;-43
2022/05/14 17:03:48;;;;;;;13.70;5.20;;;;;;;18.59;39.12;98720.05;432670;1270;109641;-44
2022/05/14 17:13:54;;;;;;;21.80;4.90;;;;;;;18.56;39.67;98725.75;432665;1271;107632;-45
2022/05/14 17:24:02;;;;;;;13.00;4.70;;;;;;;18.34;39.87;98724.52;432697;1271;108770;-44
2022/05/14 17:34:09;;;;;;;13.20;3.50;;;;;;;18.15;40.23;98727.45;432608;1271;95438;-42
2022/05/14 17:44:17;;;;;;;11.20;4.80;;;;;;;17.86;40.67;98733.59;432623;1272;95367;-44
2022/05/14 17:54:25;;;;;;;10.40;3.80;;;;;;;17.52;41.16;98736.79;432681;1272;108707;-41
2022/05/14 18:04:33;;;;;;;11.50;3.10;;;;;;;17.11;42.11;98747.56;432709;1273;109324;-46
2022/05/14 18:14:40;;;;;;;7.90;3.00;;;;;;;16.65;42.78;98751.06;432660;1273;108780;-42
2022/05/14 18:24:47;;;;;;;24.70;7.20;;;;;;;16.12;43.78;98757.48;432594;1272;96155;-43
2022/05/14 18:34:55;;;;;;;25.20;10.60;;;;;;;15.58;44.83;98765.38;432693;1274;109902;-49
2022/05/14 18:45:03;;;;;;;32.40;18.50;;;;;;;15.07;45.86;98770.70;432658;1272;108924;-44
2022/05/14 18:55:12;;;;;;;21.70;10.60;;;;;;;14.69;46.94;98776.29;432505;1274;108981;-45
2022/05/14 19:15:46;;;;;;;17.30;8.30;;;;;;;13.96;48.84;98802.17;432584;1272;109583;-46
2022/05/14 19:25:54;;;;;;;21.90;9.60;;;;;;;13.68;49.88;98810.64;432707;1274;109684;-42
2022/05/14 19:46:11;;;;;;;83.90;33.90;;;;;;;13.37;51.45;98827.62;432539;1271;96403;-42
2022/05/14 19:56:19;;;;;;;33.90;15.80;;;;;;;13.06;51.79;98838.10;432589;1271;108526;-42
2022/05/14 20:06:26;;;;;;;24.70;12.00;;;;;;;12.84;52.55;98839.89;432581;1271;95544;-44
2022/05/14 20:26:58;;;;;;;18.90;9.60;;;;;;;12.42;53.81;98843.20;432487;1270;109722;-45
2022/05/14 20:47:12;;;;;;;18.70;10.60;;;;;;;12.29;54.56;98855.78;432534;1271;108721;-46
2022/05/14 21:07:26;;;;;;;25.80;14.60;;;;;;;12.73;55.25;98856.08;432612;1271;107948;-44
2022/05/14 21:17:33;;;;;;;31.90;16.80;;;;;;;12.78;55.44;98857.31;432576;1271;95415;-45
2022/05/14 21:27:41;;;;;;;33.80;17.30;;;;;;;12.79;55.42;98857.84;432696;1271;95620;-44
2022/05/14 21:37:48;;;;;;;25.60;14.50;;;;;;;12.73;55.50;98856.23;432462;1271;109694;-46
2022/05/14 21:47:57;;;;;;;25.40;15.10;;;;;;;12.61;55.57;98854.97;432627;1271;108997;-44
2022/05/14 21:58:05;;;;;;;24.40;13.20;;;;;;;12.44;55.73;98857.60;432554;1271;108790;-45
2022/05/14 22:08:15;;;;;;;25.80;13.40;;;;;;;12.44;55.99;98858.41;432505;1271;95239;-45
2022/05/14 22:18:28;;;;;;;24.70;12.50;;;;;;;12.43;56.33;98862.91;432553;1270;108964;-41
2022/05/14 22:28:35;;;;;;;27.70;12.40;;;;;;;12.34;56.48;98853.45;432717;1271;95514;-41
2022/05/14 22:38:42;;;;;;;20.60;10.60;;;;;;;12.21;56.48;98853.55;432775;1271;95597;-42
2022/05/14 22:48:50;;;;;;;20.50;11.30;;;;;;;12.06;56.59;98853.89;429853;1271;3682525;-42
2022/05/14 22:58:58;;;;;;;22.30;11.10;;;;;;;11.98;56.80;98850.44;432607;1271;108819;-44
2022/05/14 23:09:03;;;;;;;23.00;10.60;;;;;;;11.96;57.04;98853.63;432539;1271;95424;-48
2022/05/14 23:19:10;;;;;;;21.70;10.30;;;;;;;12.11;57.23;98854.67;433582;1271;108812;-46
2022/05/14 23:29:16;;;;;;;18.60;8.60;;;;;;;12.38;57.19;98850.75;433457;1270;108135;-43
2022/05/14 23:39:24;;;;;;;23.00;10.10;;;;;;;12.58;57.17;98853.40;433543;1271;95736;-46
2022/05/14 23:49:32;;;;;;;16.50;8.60;;;;;;;12.68;57.15;98856.42;433239;1270;109764;-42
